Time;durP1;ratioP1;P1;durP2;ratioP2;P2;SDS_P1;SDS_P2;PMS_P1;PMS_P2;Temp;Humidity;BMP_temperature;BMP_pressure;BME280_temperature;BME280_humidity;BME280_pressure;Samples;Min_cycle;Max_cycle;Signal;HPM_P1;HPM_P2
2021/11/16 00:00:34;;;;;;;22.27;10.07;;;8.20;93.90;;;;;;4992371;28;20383;-76
2021/11/16 00:03:00;;;;;;;24.00;10.00;;;8.20;93.90;;;;;;5023358;28;20174;-76
2021/11/16 00:05:25;;;;;;;24.13;9.45;;;8.20;93.90;;;;;;4992656;28;20508;-76
2021/11/16 00:07:52;;;;;;;24.92;10.90;;;8.20;93.90;;;;;;4992192;28;20026;-76
2021/11/16 00:10:18;;;;;;;26.85;9.98;;;8.20;93.80;;;;;;4996407;28;20110;-77
2021/11/16 00:12:43;;;;;;;24.05;9.93;;;8.20;93.80;;;;;;4994881;28;20180;-76
2021/11/16 00:15:10;;;;;;;29.75;10.75;;;8.30;93.80;;;;;;4994439;28;20036;-76
2021/11/16 00:17:37;;;;;;;25.08;11.27;;;8.30;93.80;;;;;;4996193;28;20097;-76
2021/11/16 00:20:07;;;;;;;25.50;11.32;;;8.40;93.80;;;;;;4995603;28;20019;-76
2021/11/16 00:22:33;;;;;;;20.20;10.07;;;8.30;93.80;;;;;;4996007;28;20412;-76
2021/11/16 00:27:27;;;;;;;28.38;10.95;;;8.40;93.80;;;;;;4995855;28;20438;-76
2021/11/16 00:29:53;;;;;;;25.90;11.73;;;8.30;93.80;;;;;;4995133;28;20062;-75
2021/11/16 00:32:18;;;;;;;31.90;9.85;;;8.40;93.80;;;;;;4994477;28;20081;-75
2021/11/16 00:34:44;;;;;;;28.27;11.45;;;8.30;93.80;;;;;;4995692;28;20027;-76
2021/11/16 00:37:10;;;;;;;28.23;11.52;;;8.30;93.80;;;;;;4995275;28;20022;-76
2021/11/16 00:39:36;;;;;;;23.30;9.65;;;8.30;93.80;;;;;;4995651;28;20062;-76
2021/11/16 00:42:01;;;;;;;23.48;9.85;;;8.30;93.80;;;;;;4995144;28;20026;-76
2021/11/16 00:44:27;;;;;;;22.73;10.60;;;8.30;93.80;;;;;;4995497;28;20030;-76
2021/11/16 00:46:52;;;;;;;25.85;11.13;;;8.30;93.80;;;;;;4993747;28;20109;-76
2021/11/16 00:49:18;;;;;;;28.17;11.02;;;8.30;93.80;;;;;;4995474;28;20038;-76
2021/11/16 00:51:44;;;;;;;30.33;11.07;;;8.30;93.80;;;;;;5026578;28;20026;-76
2021/11/16 00:54:10;;;;;;;26.92;11.35;;;8.30;93.70;;;;;;4994931;28;20540;-75
2021/11/16 00:56:36;;;;;;;24.45;10.82;;;8.30;94.00;;;;;;4994106;28;20018;-76
2021/11/16 00:59:02;;;;;;;24.20;10.98;;;8.30;93.80;;;;;;4994619;28;20030;-76
2021/11/16 01:01:28;;;;;;;25.20;10.95;;;8.30;93.80;;;;;;4995359;28;20038;-76
2021/11/16 01:03:54;;;;;;;25.75;11.48;;;8.30;93.80;;;;;;4994921;28;20046;-76
2021/11/16 01:06:19;;;;;;;25.83;9.93;;;8.30;93.80;;;;;;4993682;28;20425;-76
2021/11/16 01:08:45;;;;;;;27.27;10.77;;;8.30;94.00;;;;;;4995168;28;20030;-75
2021/11/16 01:11:11;;;;;;;27.52;10.65;;;8.30;93.70;;;;;;4994392;28;20070;-76
2021/11/16 01:13:37;;;;;;;23.83;11.57;;;8.30;93.70;;;;;;4994875;28;20026;-75
2021/11/16 01:16:03;;;;;;;26.45;10.10;;;8.30;93.70;;;;;;4994631;28;20070;-76
2021/11/16 01:18:29;;;;;;;26.67;10.05;;;8.30;93.80;;;;;;4995234;28;20554;-75
2021/11/16 01:20:55;;;;;;;24.13;10.88;;;8.30;93.80;;;;;;4992796;28;20101;-75
2021/11/16 01:23:22;;;;;;;24.50;10.80;;;8.30;93.80;;;;;;4994788;28;20455;-76
2021/11/16 01:25:48;;;;;;;25.70;10.20;;;8.30;93.80;;;;;;4994671;28;20474;-76
2021/11/16 01:28:20;;;;;;;28.42;10.65;;;8.30;93.80;;;;;;4994352;28;20022;-77
2021/11/16 01:30:49;;;;;;;25.50;10.15;;;8.30;93.80;;;;;;4993503;28;20061;-77
2021/11/16 01:33:18;;;;;;;25.08;10.82;;;8.30;93.80;;;;;;4994275;28;20073;-77
2021/11/16 01:35:45;;;;;;;27.58;11.45;;;8.30;93.80;;;;;;4993248;28;20026;-75
2021/11/16 01:38:15;;;;;;;29.70;10.32;;;8.30;93.80;;;;;;4993912;28;20066;-75
2021/11/16 01:40:43;;;;;;;24.80;10.85;;;8.30;93.80;;;;;;4993240;28;20064;-76
2021/11/16 01:43:10;;;;;;;25.58;11.43;;;8.30;93.80;;;;;;4993963;28;20030;-76
2021/11/16 01:45:38;;;;;;;26.63;10.32;;;8.30;93.80;;;;;;4994577;28;20023;-75
2021/11/16 01:48:05;;;;;;;30.48;11.25;;;8.30;93.80;;;;;;4992574;28;20019;-76
2021/11/16 01:50:31;;;;;;;26.55;10.40;;;8.30;93.80;;;;;;4994428;28;20026;-76
2021/11/16 01:52:57;;;;;;;23.92;10.63;;;8.30;93.80;;;;;;5025261;28;20018;-75
2021/11/16 01:55:24;;;;;;;25.05;10.98;;;8.40;93.90;;;;;;4993083;28;20076;-76
2021/11/16 01:57:52;;;;;;;30.75;11.80;;;8.30;93.80;;;;;;4994127;28;20080;-75
2021/11/16 02:00:25;;;;;;;26.23;10.73;;;8.30;93.80;;;;;;4993974;28;20026;-76
2021/11/16 02:02:51;;;;;;;27.48;10.93;;;8.30;93.80;;;;;;4994169;28;20066;-75
2021/11/16 02:05:17;;;;;;;29.67;11.00;;;8.30;93.80;;;;;;4993586;28;20509;-76
2021/11/16 02:07:48;;;;;;;26.30;11.27;;;8.40;93.80;;;;;;4992488;28;20022;-76
2021/11/16 02:10:15;;;;;;;25.85;10.60;;;8.30;93.80;;;;;;4992261;28;20500;-76
2021/11/16 02:12:41;;;;;;;23.88;10.63;;;8.30;93.80;;;;;;4993966;28;20451;-75
2021/11/16 02:15:09;;;;;;;26.83;11.45;;;8.30;93.80;;;;;;4992215;28;20034;-75
2021/11/16 02:17:36;;;;;;;28.80;11.13;;;8.30;93.80;;;;;;4994086;28;20074;-76
2021/11/16 02:20:04;;;;;;;30.05;11.75;;;8.40;93.80;;;;;;4992366;28;20049;-76
2021/11/16 02:22:31;;;;;;;24.30;10.85;;;8.30;93.80;;;;;;4992544;28;20319;-75
2021/11/16 02:24:57;;;;;;;32.25;11.80;;;8.30;93.80;;;;;;4992923;28;20464;-75
2021/11/16 02:27:23;;;;;;;27.40;10.77;;;8.30;93.80;;;;;;4993280;28;20033;-75
2021/11/16 02:29:49;;;;;;;30.35;11.90;;;8.30;93.80;;;;;;4993135;28;20378;-75
2021/11/16 02:32:15;;;;;;;25.75;10.95;;;8.30;93.90;;;;;;4992724;28;20141;-76
2021/11/16 02:34:41;;;;;;;31.50;11.98;;;8.30;93.90;;;;;;4993659;28;20030;-76
2021/11/16 02:37:07;;;;;;;28.17;10.85;;;8.30;93.90;;;;;;4993103;28;20033;-75
2021/11/16 02:39:33;;;;;;;27.95;11.38;;;8.30;93.90;;;;;;4993199;28;20396;-76
2021/11/16 02:41:59;;;;;;;26.55;10.88;;;8.30;94.00;;;;;;4991690;28;20490;-75
2021/11/16 02:44:25;;;;;;;29.60;11.93;;;8.30;94.00;;;;;;4993139;28;20550;-76
2021/11/16 02:46:52;;;;;;;27.83;11.68;;;8.30;94.00;;;;;;4992280;28;20025;-75
2021/11/16 02:49:18;;;;;;;26.48;10.95;;;8.30;94.10;;;;;;4991711;28;20034;-76
2021/11/16 02:51:44;;;;;;;23.60;10.82;;;8.30;94.10;;;;;;4993040;28;20038;-76
2021/11/16 02:54:11;;;;;;;26.63;11.35;;;8.30;94.00;;;;;;4992840;28;20398;-76
2021/11/16 02:56:37;;;;;;;28.45;11.13;;;8.30;94.00;;;;;;4993222;28;20018;-75
2021/11/16 02:59:03;;;;;;;26.77;11.60;;;8.30;94.00;;;;;;4992491;28;20093;-76
2021/11/16 03:01:29;;;;;;;22.35;10.20;;;8.30;94.00;;;;;;4993203;28;20026;-76
2021/11/16 03:03:55;;;;;;;27.35;11.25;;;8.30;94.00;;;;;;4991627;28;20394;-76
2021/11/16 03:06:21;;;;;;;31.83;11.88;;;8.30;93.90;;;;;;4991451;28;20477;-76
2021/11/16 03:08:47;;;;;;;25.83;11.55;;;8.30;93.90;;;;;;4991477;28;20022;-75
2021/11/16 03:11:15;;;;;;;30.10;12.07;;;8.30;93.90;;;;;;4991626;28;20034;-76
2021/11/16 03:13:42;;;;;;;30.88;11.13;;;8.30;93.90;;;;;;4991768;28;20022;-76
2021/11/16 03:16:15;;;;;;;27.42;10.60;;;8.30;93.90;;;;;;4992569;28;20033;-76
2021/11/16 03:18:46;;;;;;;25.05;10.15;;;8.30;93.90;;;;;;4991738;28;20482;-76
2021/11/16 03:21:12;;;;;;;25.77;10.63;;;8.30;93.90;;;;;;4991366;28;20050;-76
2021/11/16 03:23:40;;;;;;;25.45;10.88;;;8.20;93.90;;;;;;4992959;28;20026;-76
2021/11/16 03:26:06;;;;;;;30.10;12.07;;;8.20;93.90;;;;;;4992508;28;20029;-75
2021/11/16 03:28:35;;;;;;;30.45;12.95;;;8.20;93.90;;;;;;4992995;28;20026;-76
2021/11/16 03:33:55;;;;;;;25.85;10.45;;;8.20;93.90;;;;;;4991817;28;20467;-76
2021/11/16 03:36:22;;;;;;;25.23;11.00;;;8.20;93.90;;;;;;4992980;28;20026;-76
2021/11/16 03:38:49;;;;;;;29.52;11.48;;;8.20;93.90;;;;;;4992833;28;20077;-76
2021/11/16 03:41:16;;;;;;;25.80;11.55;;;8.20;93.90;;;;;;4991171;28;20023;-76
2021/11/16 03:43:44;;;;;;;26.60;11.13;;;8.20;93.90;;;;;;4995700;28;20117;-76
2021/11/16 03:46:09;;;;;;;25.00;11.05;;;8.20;93.90;;;;;;4994909;28;20022;-75
2021/11/16 03:48:36;;;;;;;22.65;10.18;;;8.20;93.90;;;;;;4996721;28;20022;-76
2021/11/16 03:51:03;;;;;;;26.67;11.20;;;8.20;93.90;;;;;;4995958;28;20029;-75
2021/11/16 03:53:29;;;;;;;24.65;10.80;;;8.20;93.90;;;;;;4996550;28;20105;-76
2021/11/16 03:55:54;;;;;;;23.88;10.50;;;8.20;93.90;;;;;;4995453;28;20527;-75
2021/11/16 03:58:23;;;;;;;24.95;10.02;;;8.20;93.90;;;;;;4995724;28;20027;-76
2021/11/16 04:01:00;;;;;;;24.15;10.30;;;8.20;93.90;;;;;;4996432;28;20027;-76
2021/11/16 04:03:29;;;;;;;22.80;10.65;;;8.20;93.90;;;;;;4995511;28;20046;-76
2021/11/16 04:05:55;;;;;;;29.00;11.57;;;8.20;93.90;;;;;;4995055;28;20050;-77
2021/11/16 04:08:21;;;;;;;26.33;11.15;;;8.20;93.90;;;;;;4994103;28;20077;-75
2021/11/16 04:10:48;;;;;;;26.83;11.40;;;8.20;94.00;;;;;;4995482;28;20034;-76
2021/11/16 04:13:14;;;;;;;24.65;10.68;;;8.20;94.00;;;;;;4994192;28;20018;-75
2021/11/16 04:15:40;;;;;;;24.83;11.07;;;8.20;94.00;;;;;;4994774;28;20065;-75
2021/11/16 04:18:06;;;;;;;23.15;10.75;;;8.20;94.00;;;;;;4994249;28;20064;-76
2021/11/16 04:20:35;;;;;;;28.63;11.07;;;8.30;94.10;;;;;;4994660;28;20037;-76
2021/11/16 04:23:04;;;;;;;30.00;12.35;;;8.20;94.00;;;;;;4995685;28;20022;-75
2021/11/16 04:25:32;;;;;;;26.25;11.32;;;8.30;94.00;;;;;;4995943;28;20031;-75
2021/11/16 04:27:58;;;;;;;29.15;11.50;;;8.30;94.00;;;;;;4994880;28;20033;-76
2021/11/16 04:30:26;;;;;;;27.88;12.95;;;8.20;94.00;;;;;;4994372;28;20029;-76
2021/11/16 04:32:52;;;;;;;29.15;12.27;;;8.20;94.10;;;;;;4994595;28;20096;-76
2021/11/16 04:35:19;;;;;;;29.10;11.75;;;8.20;94.10;;;;;;4995489;28;20027;-75
2021/11/16 04:37:47;;;;;;;34.40;12.15;;;8.20;94.10;;;;;;4995605;28;20081;-75
2021/11/16 04:40:17;;;;;;;29.70;11.10;;;8.20;94.00;;;;;;4993961;28;20026;-75
2021/11/16 04:42:43;;;;;;;25.92;11.13;;;8.20;94.00;;;;;;4994637;28;20485;-76
2021/11/16 04:45:14;;;;;;;27.45;10.98;;;8.20;94.00;;;;;;4995106;28;20092;-76
2021/11/16 04:47:55;;;;;;;27.75;11.85;;;8.20;94.00;;;;;;4996796;28;20026;-77
2021/11/16 05:04:04;;;;;;;24.92;10.70;;;8.20;94.00;;;;;;4982916;28;20046;-77
2021/11/16 05:06:30;;;;;;;33.13;12.15;;;8.20;94.00;;;;;;4994678;28;20129;-76
2021/11/16 05:08:56;;;;;;;28.17;11.88;;;8.20;94.10;;;;;;4995106;28;20503;-76
2021/11/16 05:11:24;;;;;;;26.95;11.98;;;8.10;94.10;;;;;;4992487;28;20057;-75
2021/11/16 05:13:50;;;;;;;33.47;13.93;;;8.10;94.20;;;;;;4990794;28;20034;-77
2021/11/16 05:16:19;;;;;;;32.22;12.95;;;8.10;94.20;;;;;;4992683;28;20423;-77
2021/11/16 05:18:45;;;;;;;29.27;11.93;;;8.10;94.20;;;;;;4990853;28;20045;-77
2021/11/16 05:21:11;;;;;;;29.90;12.93;;;8.20;94.20;;;;;;4993216;28;20070;-77
2021/11/16 05:23:43;;;;;;;29.92;11.82;;;8.20;94.20;;;;;;4995129;28;20030;-78
2021/11/16 05:26:10;;;;;;;27.40;11.30;;;8.20;94.20;;;;;;4994846;28;20030;-77
2021/11/16 05:28:36;;;;;;;24.58;10.98;;;8.20;94.20;;;;;;4994623;28;20386;-77
2021/11/16 05:31:02;;;;;;;28.08;11.18;;;8.30;94.20;;;;;;4993449;28;20398;-78
2021/11/16 05:33:28;;;;;;;24.92;10.27;;;8.20;94.10;;;;;;4994652;28;20034;-77
2021/11/16 05:36:03;;;;;;;28.95;11.20;;;8.20;94.20;;;;;;4993427;28;20198;-78
2021/11/16 05:38:34;;;;;;;27.75;10.32;;;8.20;94.10;;;;;;4994547;28;20081;-77
2021/11/16 05:41:00;;;;;;;24.92;11.07;;;8.20;94.10;;;;;;4991441;28;20462;-74
2021/11/16 05:43:27;;;;;;;31.05;11.23;;;8.20;94.20;;;;;;4990393;28;20038;-81
2021/11/16 05:45:53;;;;;;;30.48;10.15;;;8.20;94.30;;;;;;4990886;28;20026;-76
2021/11/16 05:48:21;;;;;;;25.15;10.45;;;8.20;94.30;;;;;;4989609;28;20057;-77
2021/11/16 05:50:48;;;;;;;25.10;10.15;;;8.10;94.30;;;;;;4990729;28;20022;-78
2021/11/16 05:53:15;;;;;;;28.92;11.52;;;8.10;94.40;;;;;;4991342;28;20104;-78
2021/11/16 05:55:44;;;;;;;27.80;11.10;;;8.00;94.50;;;;;;4990640;28;20507;-77
2021/11/16 05:58:15;;;;;;;26.00;9.95;;;8.10;94.40;;;;;;4990366;28;20030;-76
2021/11/16 06:00:41;;;;;;;28.20;10.40;;;8.10;94.40;;;;;;4990858;28;20049;-77
2021/11/16 06:03:06;;;;;;;29.52;11.57;;;8.10;94.40;;;;;;4990252;28;20054;-77
2021/11/16 06:05:32;;;;;;;27.80;10.88;;;8.10;94.40;;;;;;4991606;28;20490;-77
2021/11/16 06:07:58;;;;;;;27.30;10.00;;;8.10;94.40;;;;;;4991470;28;20066;-77
2021/11/16 06:10:23;;;;;;;27.63;11.57;;;8.10;94.40;;;;;;4990127;28;20481;-78
2021/11/16 06:12:49;;;;;;;28.02;11.35;;;8.10;94.40;;;;;;4989560;28;20038;-77
2021/11/16 06:15:15;;;;;;;28.05;10.82;;;8.10;94.40;;;;;;4991227;28;20114;-75
2021/11/16 06:17:42;;;;;;;25.30;10.05;;;8.10;94.40;;;;;;4990693;28;20352;-73
2021/11/16 06:20:09;;;;;;;25.95;10.68;;;8.00;94.40;;;;;;4992760;28;20027;-74
2021/11/16 06:22:35;;;;;;;27.33;11.20;;;8.10;94.40;;;;;;4992940;28;20360;-74
2021/11/16 06:25:00;;;;;;;23.92;9.95;;;8.10;94.30;;;;;;4993520;28;20053;-74
2021/11/16 06:27:26;;;;;;;25.92;10.73;;;8.20;94.30;;;;;;4993119;28;20459;-74
2021/11/16 06:29:52;;;;;;;31.63;10.65;;;8.20;94.30;;;;;;4992381;28;20080;-74
2021/11/16 06:32:17;;;;;;;29.17;10.48;;;8.20;94.30;;;;;;4993136;28;20466;-74
2021/11/16 06:34:43;;;;;;;30.75;10.77;;;8.20;94.30;;;;;;4992465;28;20486;-74
2021/11/16 06:37:09;;;;;;;26.30;10.20;;;8.20;94.30;;;;;;4993490;28;20383;-74
2021/11/16 06:39:35;;;;;;;31.58;10.70;;;8.20;94.30;;;;;;4992831;28;20026;-74
2021/11/16 06:42:01;;;;;;;27.90;11.10;;;8.20;94.30;;;;;;4993419;28;20038;-73
2021/11/16 06:44:27;;;;;;;24.73;10.32;;;8.20;94.60;;;;;;4992846;28;20030;-73
2021/11/16 06:46:54;;;;;;;27.55;11.05;;;8.20;94.30;;;;;;4993400;28;20019;-73
2021/11/16 06:49:21;;;;;;;29.02;10.73;;;8.20;94.40;;;;;;4991496;28;20026;-73
2021/11/16 06:51:52;;;;;;;22.48;9.20;;;8.10;94.40;;;;;;4993502;28;20077;-74
2021/11/16 06:54:21;;;;;;;26.95;10.55;;;8.10;94.40;;;;;;4991515;28;20074;-74
2021/11/16 06:56:49;;;;;;;25.48;10.68;;;8.20;94.50;;;;;;4993249;28;20027;-73
2021/11/16 06:59:16;;;;;;;27.33;10.05;;;8.10;94.50;;;;;;4991768;28;20057;-73
2021/11/16 07:01:42;;;;;;;23.80;10.18;;;8.20;94.60;;;;;;4992859;28;20030;-73
2021/11/16 07:04:10;;;;;;;25.00;9.50;;;8.10;94.50;;;;;;4992508;28;20113;-74
2021/11/16 07:06:38;;;;;;;26.02;10.93;;;8.20;94.50;;;;;;4991315;28;20815;-74
2021/11/16 07:09:05;;;;;;;29.40;10.80;;;8.20;94.50;;;;;;4993017;28;20530;-74
2021/11/16 07:11:30;;;;;;;30.00;11.00;;;8.20;94.50;;;;;;4992538;28;20035;-74
2021/11/16 07:14:03;;;;;;;28.98;10.63;;;8.10;94.50;;;;;;4993180;28;20033;-74
2021/11/16 07:16:37;;;;;;;27.00;10.13;;;8.10;94.60;;;;;;4992869;28;20113;-74
2021/11/16 07:19:08;;;;;;;28.10;10.60;;;8.20;94.70;;;;;;4992639;28;20081;-74
2021/11/16 07:22:04;;;;;;;27.42;10.07;;;8.10;94.70;;;;;;4991380;28;20034;-73
2021/11/16 07:24:31;;;;;;;26.38;9.45;;;8.10;94.70;;;;;;4990928;28;20474;-73
2021/11/16 07:27:02;;;;;;;24.13;9.40;;;8.10;94.70;;;;;;4992819;28;20061;-73
2021/11/16 07:29:46;;;;;;;;;;;8.10;94.70;;;;;;4992919;28;20486;-73
2021/11/16 07:32:19;;;;;;;20.33;8.15;;;8.10;94.70;;;;;;4991524;28;20235;-75
2021/11/16 07:34:45;;;;;;;27.45;9.57;;;8.10;94.60;;;;;;4993086;28;20100;-74
2021/11/16 07:37:15;;;;;;;27.35;9.70;;;8.10;94.60;;;;;;4991444;28;20049;-74
2021/11/16 07:40:04;;;;;;;23.77;9.07;;;8.10;94.60;;;;;;4991022;28;20027;-74
2021/11/16 07:42:34;;;;;;;25.65;9.07;;;8.10;94.60;;;;;;4992239;28;20030;-74
2021/11/16 07:45:14;;;;;;;21.42;8.35;;;8.10;94.60;;;;;;4992648;28;20048;-74
2021/11/16 07:48:00;;;;;;;24.77;9.68;;;8.10;94.70;;;;;;4992269;28;20023;-74
2021/11/16 07:50:29;;;;;;;24.63;8.85;;;8.10;94.70;;;;;;4990600;28;20042;-75
2021/11/16 07:52:55;;;;;;;26.50;9.90;;;8.20;94.60;;;;;;4991396;28;20046;-74
2021/11/16 07:55:26;;;;;;;27.27;10.55;;;8.20;94.60;;;;;;4992098;28;20097;-73
2021/11/16 07:57:54;;;;;;;31.73;10.93;;;8.10;94.60;;;;;;4991151;28;20370;-74
2021/11/16 08:00:26;;;;;;;30.20;10.30;;;8.10;94.50;;;;;;4992207;28;20026;-73
2021/11/16 08:03:01;;;;;;;23.77;9.05;;;8.10;94.60;;;;;;4992222;28;20046;-73
2021/11/16 08:11:34;;;;;;;28.45;9.80;;;8.10;94.70;;;;;;4970535;28;20042;-74
2021/11/16 08:14:12;;;;;;;27.33;9.85;;;8.10;94.80;;;;;;4986196;28;20045;-74
2021/11/16 08:16:58;;;;;;;27.00;10.60;;;8.10;94.80;;;;;;4991862;28;20027;-73
2021/11/16 08:19:31;;;;;;;22.70;9.43;;;8.10;94.80;;;;;;4991813;28;20030;-74
2021/11/16 08:22:14;;;;;;;24.38;9.98;;;8.00;94.80;;;;;;4991277;28;20031;-73
2021/11/16 08:24:48;;;;;;;29.05;10.25;;;8.10;94.90;;;;;;4991775;28;20129;-74
2021/11/16 08:27:19;;;;;;;24.33;9.07;;;8.10;94.80;;;;;;4992340;28;20037;-73
2021/11/16 08:29:48;;;;;;;22.10;9.68;;;8.10;94.80;;;;;;4993065;28;20069;-74
2021/11/16 08:32:19;;;;;;;25.25;10.18;;;8.20;94.80;;;;;;4995474;28;20374;-74
2021/11/16 08:34:49;;;;;;;28.35;10.63;;;8.20;94.80;;;;;;4993905;28;20022;-73
2021/11/16 08:37:16;;;;;;;24.73;9.65;;;8.10;94.90;;;;;;4995644;28;20022;-74
2021/11/16 08:39:46;;;;;;;23.98;9.50;;;8.10;94.90;;;;;;4994780;28;20449;-73
2021/11/16 08:42:26;;;;;;;27.42;10.68;;;8.10;94.90;;;;;;4995478;28;20032;-73
2021/11/16 08:44:56;;;;;;;24.27;8.40;;;8.10;94.90;;;;;;4994001;28;20474;-73
2021/11/16 08:47:30;;;;;;;25.33;9.60;;;8.20;94.90;;;;;;4995359;28;20033;-73
2021/11/16 08:49:57;;;;;;;27.60;9.07;;;8.10;94.90;;;;;;4995401;28;20019;-73
2021/11/16 08:52:26;;;;;;;24.02;9.07;;;8.10;94.90;;;;;;4995251;28;20032;-73
2021/11/16 08:55:12;;;;;;;26.10;9.55;;;8.10;94.90;;;;;;4993862;28;20438;-73
2021/11/16 08:57:43;;;;;;;27.85;9.95;;;8.10;95.00;;;;;;4993516;28;20026;-74
2021/11/16 09:00:33;;;;;;;23.05;9.90;;;8.10;94.90;;;;;;4993887;28;20037;-73
2021/11/16 09:03:14;;;;;;;28.55;9.77;;;8.20;94.90;;;;;;4995294;28;20046;-73
2021/11/16 09:05:46;;;;;;;25.27;9.45;;;8.20;94.90;;;;;;4993395;28;20041;-73
2021/11/16 09:08:18;;;;;;;31.88;9.98;;;8.30;94.80;;;;;;4995104;28;20026;-74
2021/11/16 09:10:50;;;;;;;26.48;8.90;;;8.20;94.70;;;;;;4993175;28;20022;-75
2021/11/16 09:13:19;;;;;;;27.15;11.05;;;8.30;94.70;;;;;;4993665;28;20022;-74
2021/11/16 09:15:46;;;;;;;24.85;10.05;;;8.20;94.70;;;;;;4994559;28;20227;-74
2021/11/16 09:18:30;;;;;;;28.98;10.23;;;8.20;94.70;;;;;;4994787;28;20030;-74
2021/11/16 09:21:07;;;;;;;23.35;9.93;;;8.20;94.80;;;;;;4994829;28;20073;-74
2021/11/16 09:23:41;;;;;;;20.95;9.55;;;8.10;94.90;;;;;;4994324;28;20026;-74
2021/11/16 09:29:01;;;;;;;28.88;10.52;;;8.20;95.00;;;;;;4994762;28;20186;-73
2021/11/16 09:31:44;;;;;;;24.13;9.60;;;8.20;95.00;;;;;;4993774;28;20026;-74
2021/11/16 09:34:12;;;;;;;23.90;8.75;;;8.30;95.00;;;;;;4993230;28;20433;-73
2021/11/16 09:36:40;;;;;;;27.08;10.05;;;8.30;94.90;;;;;;4994013;28;20443;-74
2021/11/16 09:39:17;;;;;;;24.48;8.80;;;8.30;94.90;;;;;;4994570;28;20104;-74
2021/11/16 09:41:51;;;;;;;30.00;9.50;;;8.30;94.80;;;;;;4992405;28;20022;-74
2021/11/16 09:44:22;;;;;;;26.20;10.23;;;8.30;94.80;;;;;;4994334;28;20030;-74
2021/11/16 09:46:55;;;;;;;28.10;9.32;;;8.30;94.80;;;;;;4994023;28;20026;-74
2021/11/16 09:49:29;;;;;;;25.83;8.50;;;8.30;94.70;;;;;;4994328;28;20061;-74
2021/11/16 09:51:59;;;;;;;25.77;9.07;;;8.30;94.80;;;;;;4994254;28;20518;-75
2021/11/16 09:54:25;;;;;;;24.55;9.45;;;8.30;94.80;;;;;;4992996;28;20076;-73
2021/11/16 09:57:14;;;;;;;28.23;9.73;;;8.30;94.80;;;;;;4993303;28;20379;-74
2021/11/16 09:59:43;;;;;;;24.08;9.23;;;8.30;94.80;;;;;;4993728;28;20026;-74
2021/11/16 10:02:28;;;;;;;20.00;8.85;;;8.20;94.80;;;;;;4992574;28;20066;-75
2021/11/16 10:05:01;;;;;;;24.48;9.15;;;8.30;94.80;;;;;;4993652;28;20526;-74
2021/11/16 10:07:27;;;;;;;22.58;9.70;;;8.30;94.80;;;;;;4993740;28;20022;-75
2021/11/16 10:09:53;;;;;;;24.75;8.90;;;8.30;94.70;;;;;;4993177;28;20015;-75
2021/11/16 10:12:23;;;;;;;20.80;8.32;;;8.30;95.00;;;;;;4993498;28;20022;-75
2021/11/16 10:14:51;;;;;;;27.92;8.80;;;8.30;94.80;;;;;;4992280;28;20093;-75
2021/11/16 10:17:17;;;;;;;18.70;8.82;;;8.30;94.80;;;;;;4993671;28;20485;-75
2021/11/16 10:19:43;;;;;;;24.27;7.95;;;8.30;94.80;;;;;;4993322;28;20015;-74
2021/11/16 10:22:11;;;;;;;19.17;7.20;;;8.30;94.80;;;;;;4993443;28;20030;-73
2021/11/16 10:24:38;;;;;;;23.50;8.50;;;8.40;94.80;;;;;;4993030;28;20026;-73
2021/11/16 10:27:16;;;;;;;19.48;7.55;;;8.40;94.80;;;;;;4993605;28;20023;-73
2021/11/16 10:29:43;;;;;;;26.33;8.50;;;8.40;94.80;;;;;;4993489;28;20022;-73
2021/11/16 10:32:19;;;;;;;22.23;8.10;;;8.40;94.90;;;;;;4993322;28;20058;-73
2021/11/16 10:34:45;;;;;;;24.00;8.40;;;8.40;94.90;;;;;;4991764;28;20026;-74
2021/11/16 10:37:11;;;;;;;24.98;9.95;;;8.40;94.80;;;;;;4992132;28;20084;-74
2021/11/16 10:39:37;;;;;;;20.77;7.85;;;8.40;95.10;;;;;;4992911;28;20058;-74
2021/11/16 10:42:06;;;;;;;20.95;8.60;;;8.50;94.80;;;;;;4993606;28;20073;-74
2021/11/16 10:44:37;;;;;;;21.30;7.93;;;8.40;94.80;;;;;;4991506;28;20027;-74
2021/11/16 10:47:04;;;;;;;26.80;8.47;;;8.40;94.80;;;;;;4993442;28;20050;-73
2021/11/16 10:49:30;;;;;;;18.88;6.88;;;8.40;94.70;;;;;;4993240;28;20373;-73
2021/11/16 10:51:57;;;;;;;20.15;6.20;;;8.50;94.70;;;;;;4992292;28;20033;-74
2021/11/16 10:54:22;;;;;;;15.63;6.10;;;8.40;94.70;;;;;;4993253;28;20048;-74
2021/11/16 10:56:57;;;;;;;17.45;6.53;;;8.40;94.70;;;;;;4992712;28;20022;-74
2021/11/16 10:59:29;;;;;;;11.75;4.95;;;8.40;94.70;;;;;;4992863;28;20414;-75
2021/11/16 11:01:56;;;;;;;16.10;6.30;;;8.40;95.00;;;;;;4992327;28;20525;-73
2021/11/16 11:04:39;;;;;;;13.75;5.65;;;8.40;94.70;;;;;;4992702;28;20035;-74
2021/11/16 11:07:12;;;;;;;15.43;5.90;;;8.50;94.70;;;;;;4991661;28;20030;-74
2021/11/16 11:09:38;;;;;;;15.73;6.28;;;8.50;94.60;;;;;;4992481;28;20105;-73
2021/11/16 11:12:19;;;;;;;16.00;6.43;;;8.50;94.50;;;;;;4991882;28;20137;-73
2021/11/16 11:14:46;;;;;;;20.00;7.00;;;8.50;94.50;;;;;;4991159;28;20018;-74
2021/11/16 11:17:12;;;;;;;17.80;6.47;;;8.40;94.50;;;;;;4992772;28;20029;-73
2021/11/16 11:19:40;;;;;;;20.38;6.68;;;8.30;94.60;;;;;;4991021;28;20031;-74
2021/11/16 11:22:22;;;;;;;19.30;7.20;;;8.30;94.70;;;;;;4992847;28;20029;-73
2021/11/16 11:27:31;;;;;;;12.68;5.75;;;8.30;94.70;;;;;;4992810;28;20301;-74
2021/11/16 11:29:59;;;;;;;18.42;7.88;;;8.30;94.90;;;;;;4992337;28;20045;-74
2021/11/16 11:32:47;;;;;;;15.52;5.07;;;8.30;94.60;;;;;;4992675;28;20019;-74
2021/11/16 11:35:15;;;;;;;21.40;7.97;;;8.30;94.60;;;;;;4992770;28;20097;-74
2021/11/16 11:37:47;;;;;;;13.57;6.10;;;8.30;94.60;;;;;;4990925;28;20081;-74
2021/11/16 11:40:29;;;;;;;18.50;6.80;;;8.30;94.60;;;;;;4992632;28;20053;-73
2021/11/16 11:43:08;;;;;;;13.85;6.35;;;8.20;94.50;;;;;;4990741;28;20378;-74
2021/11/16 11:45:40;;;;;;;14.38;5.53;;;8.20;94.50;;;;;;4992362;28;20054;-73
2021/11/16 11:48:19;;;;;;;15.00;6.18;;;8.30;94.50;;;;;;4991372;28;20033;-74
2021/11/16 11:50:44;;;;;;;17.60;6.22;;;8.20;94.60;;;;;;4990832;28;20026;-74
2021/11/16 11:53:19;;;;;;;14.90;6.40;;;8.20;94.60;;;;;;4992830;28;20494;-75
2021/11/16 11:55:49;;;;;;;16.65;6.53;;;8.20;94.60;;;;;;4992059;28;20026;-73
2021/11/16 11:58:17;;;;;;;15.38;7.07;;;8.10;94.60;;;;;;4990839;28;20023;-74
2021/11/16 12:00:45;;;;;;;16.48;6.57;;;8.20;94.60;;;;;;4991789;28;20469;-74
2021/11/16 12:03:11;;;;;;;15.85;7.03;;;8.10;94.60;;;;;;4991088;28;20046;-74
2021/11/16 12:05:41;;;;;;;19.35;7.10;;;8.10;94.60;;;;;;4994453;28;20034;-75
2021/11/16 12:08:09;;;;;;;14.85;6.53;;;8.10;94.60;;;;;;4996640;28;20028;-74
2021/11/16 12:10:36;;;;;;;14.45;6.70;;;8.10;94.60;;;;;;4994939;28;20347;-75
2021/11/16 12:13:03;;;;;;;17.33;7.55;;;8.10;94.60;;;;;;4996296;28;20026;-74
2021/11/16 12:15:35;;;;;;;17.17;6.18;;;8.10;94.60;;;;;;4995880;28;20141;-74
2021/11/16 12:18:02;;;;;;;13.98;5.45;;;8.20;94.60;;;;;;4995651;28;20029;-74
2021/11/16 12:20:42;;;;;;;18.63;7.40;;;8.20;94.60;;;;;;4996045;28;20471;-74
2021/11/16 12:23:14;;;;;;;14.60;5.38;;;8.20;94.60;;;;;;4994770;28;20029;-75
2021/11/16 12:25:42;;;;;;;12.30;4.85;;;8.30;94.50;;;;;;4995361;28;20497;-74
2021/11/16 12:28:31;;;;;;;16.42;6.65;;;8.20;94.50;;;;;;4995860;28;20026;-74
2021/11/16 12:30:59;;;;;;;14.35;6.18;;;8.20;94.50;;;;;;4995442;28;20022;-74
2021/11/16 12:33:45;;;;;;;20.42;7.32;;;8.20;94.50;;;;;;4995493;28;20037;-74
2021/11/16 12:36:31;;;;;;;15.82;6.57;;;8.20;94.50;;;;;;4995473;28;20443;-74
2021/11/16 12:39:10;;;;;;;22.33;7.47;;;8.20;94.50;;;;;;4990183;28;20121;-73
2021/11/16 12:41:39;;;;;;;14.60;6.22;;;8.10;94.50;;;;;;4995420;28;20443;-74
2021/11/16 12:44:14;;;;;;;16.48;6.20;;;8.10;94.50;;;;;;4995763;28;20027;-74
2021/11/16 12:46:41;;;;;;;12.77;5.80;;;8.10;94.60;;;;;;4993933;28;20023;-74
2021/11/16 12:49:10;;;;;;;17.27;5.93;;;8.00;94.60;;;;;;4994238;28;20466;-74
2021/11/16 12:51:51;;;;;;;17.58;6.60;;;8.10;94.80;;;;;;4995149;28;20374;-74
2021/11/16 12:54:31;;;;;;;17.02;6.90;;;8.10;94.50;;;;;;4995308;28;20032;-74
2021/11/16 12:56:56;;;;;;;13.88;6.05;;;8.10;94.50;;;;;;4994935;28;20030;-74
2021/11/16 12:59:43;;;;;;;14.30;6.57;;;8.20;94.50;;;;;;4993967;28;20049;-74
2021/11/16 13:02:24;;;;;;;16.27;6.45;;;8.20;94.40;;;;;;4994611;28;20368;-74
2021/11/16 13:04:54;;;;;;;18.75;7.53;;;8.20;94.40;;;;;;4994818;28;20111;-74
2021/11/16 13:07:29;;;;;;;18.90;7.57;;;8.20;94.50;;;;;;4995334;28;20530;-74
2021/11/16 13:10:17;;;;;;;20.63;7.97;;;8.10;94.40;;;;;;4993386;28;20762;-74
2021/11/16 13:12:49;;;;;;;22.17;7.80;;;8.10;94.50;;;;;;4994812;28;20022;-74
2021/11/16 13:15:27;;;;;;;17.95;7.63;;;8.10;94.50;;;;;;4994428;28;20027;-74
2021/11/16 13:18:00;;;;;;;16.23;6.72;;;8.00;94.50;;;;;;4994603;28;20030;-74
2021/11/16 13:20:35;;;;;;;16.85;6.63;;;8.10;94.50;;;;;;4994846;28;20420;-75
2021/11/16 13:23:04;;;;;;;18.83;6.65;;;8.00;94.50;;;;;;4994485;28;20055;-75